Terminal Aerodrome Forecast
Issued by NWS

Home | Current Version | Previous Version | Text Only | Print | Product List | Glossary On
Versions: 1 2 3 4 5 6 7 8 9 10 11 12 13 14 15 16 17 18 19 20 21 22 23 24
891
FTUS43 KDLH 150541
TAFHYR
TAF
KHYR 150541Z 1506/1606 16005KT 3SM -RA BR OVC006
     FM150800 21004KT 1SM -DZ BR OVC003
     FM151100 26005KT 2SM -DZ BR BKN008 OVC080
     FM151600 29008KT P6SM SCT008 BKN015
     FM151900 29008G15KT P6SM VCSH OVC015
     FM160000 32008KT P6SM BKN025=

USA.gov is the U.S. government's official web portal to all federal, state and local government web resources and services.